sensor_id;sensor_type;location;lat;lon;timestamp;pressure;altitude;pressure_sealevel;temperature;humidity
29461;BME280;16428;47.836;35.106;2022-09-17T00:01:35;100365.94;;;16.65;100.00
29461;BME280;16428;47.836;35.106;2022-09-17T00:04:07;100373.66;;;16.61;100.00
29461;BME280;16428;47.836;35.106;2022-09-17T00:06:37;100374.13;;;16.58;100.00
29461;BME280;16428;47.836;35.106;2022-09-17T00:09:09;100377.03;;;16.57;100.00
29461;BME280;16428;47.836;35.106;2022-09-17T00:11:40;100369.56;;;16.52;100.00
29461;BME280;16428;47.836;35.106;2022-09-17T00:14:14;100367.78;;;16.46;100.00
29461;BME280;16428;47.836;35.106;2022-09-17T00:16:46;100369.25;;;16.42;100.00
29461;BME280;16428;47.836;35.106;2022-09-17T00:19:19;100369.94;;;16.37;100.00
29461;BME280;16428;47.836;35.106;2022-09-17T00:21:52;100366.84;;;16.34;100.00
29461;BME280;16428;47.836;35.106;2022-09-17T00:24:26;100369.84;;;16.26;100.00
29461;BME280;16428;47.836;35.106;2022-09-17T00:27:02;100377.31;;;16.30;100.00
29461;BME280;16428;47.836;35.106;2022-09-17T00:29:31;100377.09;;;16.32;100.00
29461;BME280;16428;47.836;35.106;2022-09-17T00:32:01;100378.19;;;16.24;100.00
29461;BME280;16428;47.836;35.106;2022-09-17T00:34:28;100379.63;;;16.27;100.00
29461;BME280;16428;47.836;35.106;2022-09-17T00:36:57;100394.06;;;16.21;100.00
29461;BME280;16428;47.836;35.106;2022-09-17T00:39:38;100384.03;;;16.21;100.00
29461;BME280;16428;47.836;35.106;2022-09-17T00:42:09;100389.09;;;16.17;100.00
29461;BME280;16428;47.836;35.106;2022-09-17T00:44:54;100387.88;;;16.13;100.00
29461;BME280;16428;47.836;35.106;2022-09-17T00:48:03;100398.09;;;16.11;100.00
29461;BME280;16428;47.836;35.106;2022-09-17T00:50:35;100396.63;;;16.15;100.00
29461;BME280;16428;47.836;35.106;2022-09-17T00:53:24;100398.72;;;16.13;100.00
29461;BME280;16428;47.836;35.106;2022-09-17T00:56:04;100401.59;;;16.18;100.00
29461;BME280;16428;47.836;35.106;2022-09-17T00:58:37;100396.88;;;16.07;100.00
29461;BME280;16428;47.836;35.106;2022-09-17T01:01:10;100398.38;;;16.03;100.00
29461;BME280;16428;47.836;35.106;2022-09-17T01:03:43;100403.13;;;16.08;100.00
29461;BME280;16428;47.836;35.106;2022-09-17T01:09:48;100414.25;;;16.00;100.00
29461;BME280;16428;47.836;35.106;2022-09-17T01:12:49;100416.75;;;16.01;100.00
29461;BME280;16428;47.836;35.106;2022-09-17T01:36:58;100422.41;;;15.93;100.00
29461;BME280;16428;47.836;35.106;2022-09-17T01:39:50;100416.13;;;15.99;100.00
29461;BME280;16428;47.836;35.106;2022-09-17T01:42:56;100433.84;;;15.95;100.00
29461;BME280;16428;47.836;35.106;2022-09-17T01:45:37;100429.09;;;15.91;100.00
29461;BME280;16428;47.836;35.106;2022-09-17T01:48:15;100429.47;;;15.94;100.00
29461;BME280;16428;47.836;35.106;2022-09-17T01:51:03;100441.38;;;15.93;100.00
29461;BME280;16428;47.836;35.106;2022-09-17T01:54:17;100441.16;;;15.95;100.00
29461;BME280;16428;47.836;35.106;2022-09-17T01:59:21;100438.03;;;15.91;100.00
29461;BME280;16428;47.836;35.106;2022-09-17T02:01:53;100436.38;;;15.90;100.00
29461;BME280;16428;47.836;35.106;2022-09-17T02:04:29;100452.19;;;15.93;100.00
29461;BME280;16428;47.836;35.106;2022-09-17T02:07:15;100441.75;;;15.97;100.00
29461;BME280;16428;47.836;35.106;2022-09-17T02:10:15;100443.84;;;15.95;100.00
29461;BME280;16428;47.836;35.106;2022-09-17T02:12:55;100438.03;;;15.91;100.00
29461;BME280;16428;47.836;35.106;2022-09-17T02:15:32;100437.44;;;15.89;100.00
29461;BME280;16428;47.836;35.106;2022-09-17T02:18:24;100430.19;;;15.83;100.00
29461;BME280;16428;47.836;35.106;2022-09-17T02:21:16;100433.09;;;15.88;100.00
29461;BME280;16428;47.836;35.106;2022-09-17T02:24:16;100429.38;;;15.82;100.00
29461;BME280;16428;47.836;35.106;2022-09-17T02:30:11;100432.31;;;15.74;100.00
29461;BME280;16428;47.836;35.106;2022-09-17T02:32:40;100429.44;;;15.69;100.00
29461;BME280;16428;47.836;35.106;2022-09-17T02:35:11;100431.13;;;15.64;100.00
29461;BME280;16428;47.836;35.106;2022-09-17T02:37:49;100429.31;;;15.58;100.00
29461;BME280;16428;47.836;35.106;2022-09-17T02:40:22;100437.81;;;15.61;100.00
29461;BME280;16428;47.836;35.106;2022-09-17T02:55:04;100449.91;;;15.59;100.00
29461;BME280;16428;47.836;35.106;2022-09-17T02:57:46;100452.41;;;15.54;100.00
29461;BME280;16428;47.836;35.106;2022-09-17T03:00:21;100449.91;;;15.52;100.00
29461;BME280;16428;47.836;35.106;2022-09-17T03:03:04;100448.25;;;15.58;100.00
29461;BME280;16428;47.836;35.106;2022-09-17T03:05:38;100446.16;;;15.53;100.00
29461;BME280;16428;47.836;35.106;2022-09-17T03:08:12;100461.34;;;15.61;100.00
29461;BME280;16428;47.836;35.106;2022-09-17T03:10:52;100456.53;;;15.63;100.00
29461;BME280;16428;47.836;35.106;2022-09-17T03:13:20;100466.94;;;15.66;100.00
29461;BME280;16428;47.836;35.106;2022-09-17T03:15:50;100458.22;;;15.64;100.00
29461;BME280;16428;47.836;35.106;2022-09-17T03:18:17;100456.94;;;15.66;100.00
29461;BME280;16428;47.836;35.106;2022-09-17T03:20:49;100454.25;;;15.66;100.00
29461;BME280;16428;47.836;35.106;2022-09-17T03:23:24;100445.72;;;15.63;100.00
29461;BME280;16428;47.836;35.106;2022-09-17T03:25:55;100448.84;;;15.60;100.00
29461;BME280;16428;47.836;35.106;2022-09-17T03:28:26;100452.41;;;15.54;100.00
29461;BME280;16428;47.836;35.106;2022-09-17T03:30:55;100453.06;;;15.56;100.00
29461;BME280;16428;47.836;35.106;2022-09-17T03:33:26;100447.81;;;15.54;100.00
29461;BME280;16428;47.836;35.106;2022-09-17T03:35:55;100454.25;;;15.60;100.00
29461;BME280;16428;47.836;35.106;2022-09-17T03:38:34;100450.09;;;15.64;100.00
29461;BME280;16428;47.836;35.106;2022-09-17T03:41:04;100453.84;;;15.63;100.00
29461;BME280;16428;47.836;35.106;2022-09-17T03:43:37;100455.94;;;15.54;100.00
29461;BME280;16428;47.836;35.106;2022-09-17T03:46:09;100454.88;;;15.62;100.00
29461;BME280;16428;47.836;35.106;2022-09-17T03:48:45;100458.00;;;15.65;100.00
29461;BME280;16428;47.836;35.106;2022-09-17T03:51:14;100454.88;;;15.68;100.00
29461;BME280;16428;47.836;35.106;2022-09-17T03:53:42;100459.41;;;15.74;100.00
29461;BME280;16428;47.836;35.106;2022-09-17T03:56:10;100458.13;;;15.77;100.00
29461;BME280;16428;47.836;35.106;2022-09-17T03:58:44;100464.16;;;15.79;100.00
29461;BME280;16428;47.836;35.106;2022-09-17T04:01:12;100463.13;;;15.80;100.00
29461;BME280;16428;47.836;35.106;2022-09-17T04:03:41;100471.88;;;15.75;100.00
29461;BME280;16428;47.836;35.106;2022-09-17T04:06:17;100477.28;;;15.82;100.00
29461;BME280;16428;47.836;35.106;2022-09-17T04:08:46;100479.13;;;15.88;100.00
29461;BME280;16428;47.836;35.106;2022-09-17T04:11:16;100471.38;;;15.92;100.00
29461;BME280;16428;47.836;35.106;2022-09-17T04:13:47;100476.59;;;15.93;100.00
29461;BME280;16428;47.836;35.106;2022-09-17T04:16:24;100480.53;;;15.97;100.00
29461;BME280;16428;47.836;35.106;2022-09-17T04:18:51;100489.28;;;15.99;100.00
29461;BME280;16428;47.836;35.106;2022-09-17T04:21:22;100495.53;;;16.00;100.00
29461;BME280;16428;47.836;35.106;2022-09-17T04:23:51;100493.78;;;16.12;100.00
29461;BME280;16428;47.836;35.106;2022-09-17T04:26:23;100485.81;;;16.17;100.00
29461;BME280;16428;47.836;35.106;2022-09-17T04:28:59;100487.84;;;16.22;100.00
29461;BME280;16428;47.836;35.106;2022-09-17T04:31:28;100482.41;;;16.28;100.00
29461;BME280;16428;47.836;35.106;2022-09-17T04:33:57;100484.72;;;16.25;100.00
29461;BME280;16428;47.836;35.106;2022-09-17T04:36:28;100487.31;;;16.38;100.00
29461;BME280;16428;47.836;35.106;2022-09-17T04:39:02;100490.66;;;16.40;100.00
29461;BME280;16428;47.836;35.106;2022-09-17T04:41:39;100497.28;;;16.44;100.00
29461;BME280;16428;47.836;35.106;2022-09-17T04:44:10;100494.69;;;16.56;100.00
29461;BME280;16428;47.836;35.106;2022-09-17T04:46:39;100495.88;;;16.66;100.00
29461;BME280;16428;47.836;35.106;2022-09-17T04:49:11;100484.44;;;16.64;100.00
29461;BME280;16428;47.836;35.106;2022-09-17T04:51:40;100477.34;;;16.63;100.00
29461;BME280;16428;47.836;35.106;2022-09-17T04:54:10;100481.00;;;16.75;100.00
29461;BME280;16428;47.836;35.106;2022-09-17T04:56:39;100489.00;;;16.88;100.00
29461;BME280;16428;47.836;35.106;2022-09-17T04:59:09;100486.47;;;16.94;100.00
29461;BME280;16428;47.836;35.106;2022-09-17T05:01:39;100488.56;;;16.92;100.00
29461;BME280;16428;47.836;35.106;2022-09-17T05:04:06;100497.59;;;16.85;100.00
29461;BME280;16428;47.836;35.106;2022-09-17T05:06:35;100496.25;;;16.95;100.00
29461;BME280;16428;47.836;35.106;2022-09-17T05:09:06;100486.91;;;16.91;100.00
29461;BME280;16428;47.836;35.106;2022-09-17T05:11:44;100497.97;;;16.89;100.00
29461;BME280;16428;47.836;35.106;2022-09-17T05:14:14;100491.28;;;16.92;100.00
29461;BME280;16428;47.836;35.106;2022-09-17T05:16:43;100497.31;;;16.94;100.00
29461;BME280;16428;47.836;35.106;2022-09-17T05:19:12;100500.50;;;17.09;100.00
29461;BME280;16428;47.836;35.106;2022-09-17T05:21:41;100495.91;;;17.09;100.00
29461;BME280;16428;47.836;35.106;2022-09-17T05:24:10;100487.97;;;17.08;100.00
29461;BME280;16428;47.836;35.106;2022-09-17T05:26:40;100481.88;;;17.31;100.00
29461;BME280;16428;47.836;35.106;2022-09-17T05:29:17;100481.69;;;17.44;100.00
29461;BME280;16428;47.836;35.106;2022-09-17T05:31:47;100480.59;;;17.51;100.00
29461;BME280;16428;47.836;35.106;2022-09-17T05:34:27;100480.34;;;17.53;100.00
29461;BME280;16428;47.836;35.106;2022-09-17T05:36:56;100480.13;;;17.54;100.00
29461;BME280;16428;47.836;35.106;2022-09-17T05:39:25;100473.50;;;17.69;100.00
29461;BME280;16428;47.836;35.106;2022-09-17T05:41:56;100473.53;;;17.80;100.00
29461;BME280;16428;47.836;35.106;2022-09-17T05:44:25;100478.91;;;17.87;100.00
29461;BME280;16428;47.836;35.106;2022-09-17T05:47:03;100465.31;;;17.87;100.00
29461;BME280;16428;47.836;35.106;2022-09-17T05:49:32;100472.28;;;17.95;100.00
29461;BME280;16428;47.836;35.106;2022-09-17T05:52:01;100471.00;;;17.97;100.00
29461;BME280;16428;47.836;35.106;2022-09-17T05:54:32;100464.47;;;18.16;100.00
29461;BME280;16428;47.836;35.106;2022-09-17T05:57:01;100467.28;;;18.21;100.00
29461;BME280;16428;47.836;35.106;2022-09-17T05:59:30;100477.47;;;18.38;100.00
29461;BME280;16428;47.836;35.106;2022-09-17T06:02:02;100474.66;;;18.44;100.00
29461;BME280;16428;47.836;35.106;2022-09-17T06:04:33;100467.44;;;18.38;100.00
29461;BME280;16428;47.836;35.106;2022-09-17T06:07:05;100471.22;;;18.49;100.00
29461;BME280;16428;47.836;35.106;2022-09-17T06:09:39;100475.44;;;18.63;100.00
29461;BME280;16428;47.836;35.106;2022-09-17T06:12:12;100480.28;;;18.73;100.00
29461;BME280;16428;47.836;35.106;2022-09-17T06:14:42;100481.72;;;18.75;100.00
29461;BME280;16428;47.836;35.106;2022-09-17T06:17:18;100487.38;;;18.85;100.00
29461;BME280;16428;47.836;35.106;2022-09-17T06:19:53;100491.16;;;18.84;100.00
29461;BME280;16428;47.836;35.106;2022-09-17T06:22:22;100499.09;;;18.97;100.00
29461;BME280;16428;47.836;35.106;2022-09-17T06:24:52;100494.13;;;18.94;100.00
29461;BME280;16428;47.836;35.106;2022-09-17T06:27:20;100505.63;;;19.08;100.00
29461;BME280;16428;47.836;35.106;2022-09-17T06:29:52;100500.41;;;19.07;100.00
29461;BME280;16428;47.836;35.106;2022-09-17T06:32:23;100504.66;;;19.14;100.00
29461;BME280;16428;47.836;35.106;2022-09-17T06:35:02;100503.09;;;19.30;100.00
29461;BME280;16428;47.836;35.106;2022-09-17T06:37:32;100507.56;;;19.48;100.00
29461;BME280;16428;47.836;35.106;2022-09-17T06:40:00;100506.88;;;19.52;100.00
29461;BME280;16428;47.836;35.106;2022-09-17T06:42:30;100510.75;;;19.56;100.00
29461;BME280;16428;47.836;35.106;2022-09-17T06:45:10;100502.94;;;19.60;100.00
29461;BME280;16428;47.836;35.106;2022-09-17T06:47:45;100500.28;;;19.77;100.00
29461;BME280;16428;47.836;35.106;2022-09-17T06:50:16;100507.97;;;19.80;100.00
29461;BME280;16428;47.836;35.106;2022-09-17T06:52:55;100501.94;;;20.06;100.00
29461;BME280;16428;47.836;35.106;2022-09-17T06:55:25;100494.84;;;20.22;100.00
29461;BME280;16428;47.836;35.106;2022-09-17T06:57:58;100495.19;;;20.25;100.00
29461;BME280;16428;47.836;35.106;2022-09-17T07:00:28;100499.63;;;20.43;100.00
29461;BME280;16428;47.836;35.106;2022-09-17T07:03:10;100503.69;;;20.74;100.00
29461;BME280;16428;47.836;35.106;2022-09-17T07:05:45;100495.84;;;20.78;100.00
29461;BME280;16428;47.836;35.106;2022-09-17T07:08:17;100486.28;;;20.97;100.00
29461;BME280;16428;47.836;35.106;2022-09-17T07:10:56;100485.09;;;21.10;100.00
29461;BME280;16428;47.836;35.106;2022-09-17T07:13:28;100486.47;;;21.29;100.00
29461;BME280;16428;47.836;35.106;2022-09-17T07:15:58;100484.44;;;21.41;100.00
29461;BME280;16428;47.836;35.106;2022-09-17T07:18:32;100485.47;;;21.57;100.00
29461;BME280;16428;47.836;35.106;2022-09-17T07:21:05;100491.75;;;21.57;100.00
29461;BME280;16428;47.836;35.106;2022-09-17T07:23:46;100481.47;;;21.64;100.00
29461;BME280;16428;47.836;35.106;2022-09-17T07:26:23;100471.31;;;21.60;100.00
29461;BME280;16428;47.836;35.106;2022-09-17T07:28:54;100477.31;;;21.84;100.00
29461;BME280;16428;47.836;35.106;2022-09-17T07:31:26;100491.34;;;21.92;100.00
29461;BME280;16428;47.836;35.106;2022-09-17T07:33:58;100495.19;;;21.69;100.00
29461;BME280;16428;47.836;35.106;2022-09-17T07:36:27;100499.34;;;21.50;100.00
29461;BME280;16428;47.836;35.106;2022-09-17T07:39:01;100491.91;;;21.46;100.00
29461;BME280;16428;47.836;35.106;2022-09-17T07:41:31;100504.22;;;21.48;100.00
29461;BME280;16428;47.836;35.106;2022-09-17T07:44:05;100503.38;;;21.69;100.00
29461;BME280;16428;47.836;35.106;2022-09-17T07:46:36;100504.09;;;21.82;99.73
29461;BME280;16428;47.836;35.106;2022-09-17T07:49:08;100505.84;;;22.15;99.12
29461;BME280;16428;47.836;35.106;2022-09-17T07:51:37;100507.34;;;22.27;94.75
29461;BME280;16428;47.836;35.106;2022-09-17T07:54:10;100494.25;;;22.34;94.73
29461;BME280;16428;47.836;35.106;2022-09-17T07:56:40;100479.75;;;22.34;96.19
29461;BME280;16428;47.836;35.106;2022-09-17T07:59:12;100479.47;;;22.30;97.26
29461;BME280;16428;47.836;35.106;2022-09-17T08:01:40;100476.81;;;22.40;96.65
29461;BME280;16428;47.836;35.106;2022-09-17T08:04:09;100482.28;;;22.40;93.35
29461;BME280;16428;47.836;35.106;2022-09-17T08:06:40;100485.09;;;22.51;93.94
29461;BME280;16428;47.836;35.106;2022-09-17T08:09:12;100482.81;;;22.37;94.89
29461;BME280;16428;47.836;35.106;2022-09-17T08:11:52;100485.63;;;22.48;91.92
29461;BME280;16428;47.836;35.106;2022-09-17T08:14:27;100476.38;;;22.54;91.88
29461;BME280;16428;47.836;35.106;2022-09-17T08:17:01;100478.72;;;22.72;92.08
29461;BME280;16428;47.836;35.106;2022-09-17T08:19:34;100483.00;;;22.63;90.17
29461;BME280;16428;47.836;35.106;2022-09-17T08:22:04;100476.41;;;22.59;91.69
29461;BME280;16428;47.836;35.106;2022-09-17T08:24:34;100472.03;;;22.58;91.20
29461;BME280;16428;47.836;35.106;2022-09-17T08:27:04;100469.56;;;22.61;91.31
29461;BME280;16428;47.836;35.106;2022-09-17T08:29:36;100465.22;;;22.65;91.30
29461;BME280;16428;47.836;35.106;2022-09-17T08:32:10;100445.81;;;22.67;90.41
29461;BME280;16428;47.836;35.106;2022-09-17T08:34:42;100448.03;;;22.70;90.18
29461;BME280;16428;47.836;35.106;2022-09-17T08:37:12;100456.59;;;22.46;89.40
29461;BME280;16428;47.836;35.106;2022-09-17T08:39:41;100444.66;;;22.63;89.99
29461;BME280;16428;47.836;35.106;2022-09-17T08:42:36;100443.31;;;22.65;89.02
29461;BME280;16428;47.836;35.106;2022-09-17T08:45:11;100452.47;;;22.76;89.76
29461;BME280;16428;47.836;35.106;2022-09-17T08:47:47;100440.84;;;22.64;90.07
29461;BME280;16428;47.836;35.106;2022-09-17T08:50:35;100440.31;;;22.67;91.84
29461;BME280;16428;47.836;35.106;2022-09-17T08:56:15;100454.72;;;22.52;93.82
29461;BME280;16428;47.836;35.106;2022-09-17T09:02:19;100451.84;;;22.69;91.08
29461;BME280;16428;47.836;35.106;2022-09-17T09:05:14;100448.38;;;22.78;92.37
29461;BME280;16428;47.836;35.106;2022-09-17T09:07:54;100443.97;;;23.20;92.25
29461;BME280;16428;47.836;35.106;2022-09-17T09:10:29;100438.03;;;23.43;90.94
29461;BME280;16428;47.836;35.106;2022-09-17T09:13:05;100437.19;;;23.42;92.47
29461;BME280;16428;47.836;35.106;2022-09-17T09:16:05;100432.50;;;23.33;93.87
29461;BME280;16428;47.836;35.106;2022-09-17T09:18:40;100440.97;;;23.21;91.25
29461;BME280;16428;47.836;35.106;2022-09-17T09:38:33;100430.94;;;22.95;94.06
29461;BME280;16428;47.836;35.106;2022-09-17T09:41:11;100420.25;;;22.93;95.62
29461;BME280;16428;47.836;35.106;2022-09-17T09:44:04;100422.41;;;22.86;94.94
29461;BME280;16428;47.836;35.106;2022-09-17T09:58:01;100399.53;;;23.12;95.49
29461;BME280;16428;47.836;35.106;2022-09-17T10:00:39;100403.22;;;23.43;93.87
29461;BME280;16428;47.836;35.106;2022-09-17T10:03:20;100398.09;;;23.62;91.62
29461;BME280;16428;47.836;35.106;2022-09-17T10:06:04;100402.72;;;23.57;90.01
29461;BME280;16428;47.836;35.106;2022-09-17T10:08:39;100398.91;;;23.53;90.08
29461;BME280;16428;47.836;35.106;2022-09-17T10:13:40;100400.31;;;23.65;88.56
29461;BME280;16428;47.836;35.106;2022-09-17T10:16:26;100397.03;;;23.78;90.24
29461;BME280;16428;47.836;35.106;2022-09-17T10:21:41;100394.56;;;23.77;90.78
29461;BME280;16428;47.836;35.106;2022-09-17T10:24:28;100391.41;;;23.38;89.25
29461;BME280;16428;47.836;35.106;2022-09-17T10:27:04;100399.13;;;23.46;90.63
29461;BME280;16428;47.836;35.106;2022-09-17T10:29:34;100402.69;;;23.46;89.97
29461;BME280;16428;47.836;35.106;2022-09-17T10:32:04;100393.59;;;23.41;88.45
29461;BME280;16428;47.836;35.106;2022-09-17T10:34:34;100390.88;;;23.41;89.98
29461;BME280;16428;47.836;35.106;2022-09-17T10:37:03;100389.03;;;23.57;89.43
29461;BME280;16428;47.836;35.106;2022-09-17T10:39:37;100392.31;;;23.59;88.65
29461;BME280;16428;47.836;35.106;2022-09-17T10:42:18;100393.41;;;23.53;91.69
29461;BME280;16428;47.836;35.106;2022-09-17T10:44:52;100404.00;;;23.39;90.75
29461;BME280;16428;47.836;35.106;2022-09-17T10:47:36;100402.59;;;23.21;90.64
29461;BME280;16428;47.836;35.106;2022-09-17T10:50:29;100402.84;;;23.14;92.93
29461;BME280;16428;47.836;35.106;2022-09-17T10:53:13;100391.34;;;23.23;94.46
29461;BME280;16428;47.836;35.106;2022-09-17T10:56:05;100394.13;;;23.28;95.50
29461;BME280;16428;47.836;35.106;2022-09-17T11:05:26;100408.31;;;23.14;97.01
29461;BME280;16428;47.836;35.106;2022-09-17T11:08:42;100401.63;;;22.95;97.89
29461;BME280;16428;47.836;35.106;2022-09-17T11:11:46;100401.63;;;22.90;99.77
29461;BME280;16428;47.836;35.106;2022-09-17T11:24:17;100393.81;;;22.72;98.47
29461;BME280;16428;47.836;35.106;2022-09-17T11:27:03;100378.53;;;22.76;100.00
29461;BME280;16428;47.836;35.106;2022-09-17T11:42:32;100362.00;;;22.61;95.16
29461;BME280;16428;47.836;35.106;2022-09-17T11:45:12;100354.09;;;22.69;95.03
29461;BME280;16428;47.836;35.106;2022-09-17T11:47:48;100341.31;;;22.80;95.01
29461;BME280;16428;47.836;35.106;2022-09-17T11:50:35;100337.59;;;23.01;96.39
29461;BME280;16428;47.836;35.106;2022-09-17T11:55:50;100342.56;;;23.25;90.87
29461;BME280;16428;47.836;35.106;2022-09-17T11:58:41;100348.09;;;23.40;90.45
29461;BME280;16428;47.836;35.106;2022-09-17T12:01:15;100351.97;;;23.49;89.88
29461;BME280;16428;47.836;35.106;2022-09-17T12:03:54;100336.66;;;23.58;88.73
29461;BME280;16428;47.836;35.106;2022-09-17T12:06:55;100332.28;;;23.62;88.83
29461;BME280;16428;47.836;35.106;2022-09-17T12:09:25;100325.69;;;23.83;88.24
29461;BME280;16428;47.836;35.106;2022-09-17T12:12:16;100326.22;;;24.51;86.13
29461;BME280;16428;47.836;35.106;2022-09-17T12:15:13;100321.25;;;24.64;84.70
29461;BME280;16428;47.836;35.106;2022-09-17T12:17:55;100318.53;;;24.48;86.34
29461;BME280;16428;47.836;35.106;2022-09-17T12:20:47;100316.88;;;24.47;86.42
29461;BME280;16428;47.836;35.106;2022-09-17T12:23:29;100318.56;;;24.38;85.63
29461;BME280;16428;47.836;35.106;2022-09-17T12:31:25;100287.00;;;25.54;79.70
29461;BME280;16428;47.836;35.106;2022-09-17T12:34:15;100278.66;;;25.70;79.31
29461;BME280;16428;47.836;35.106;2022-09-17T12:39:46;100265.19;;;26.74;72.71
29461;BME280;16428;47.836;35.106;2022-09-17T12:42:41;100256.88;;;27.03;71.43
29461;BME280;16428;47.836;35.106;2022-09-17T12:53:33;100230.63;;;28.90;61.40
29461;BME280;16428;47.836;35.106;2022-09-17T12:59:01;100216.19;;;28.93;59.99
29461;BME280;16428;47.836;35.106;2022-09-17T13:01:43;100200.66;;;28.83;59.02
29461;BME280;16428;47.836;35.106;2022-09-17T13:04:39;100195.75;;;29.16;59.11
29461;BME280;16428;47.836;35.106;2022-09-17T13:13:46;100192.84;;;28.99;59.33
29461;BME280;16428;47.836;35.106;2022-09-17T13:21:59;100168.56;;;27.08;65.26
29461;BME280;16428;47.836;35.106;2022-09-17T13:24:29;100182.84;;;26.91;67.40
29461;BME280;16428;47.836;35.106;2022-09-17T13:26:59;100177.22;;;26.40;69.32
29461;BME280;16428;47.836;35.106;2022-09-17T13:40:35;100159.34;;;25.27;76.15
29461;BME280;16428;47.836;35.106;2022-09-17T13:45:33;100170.59;;;24.96;78.26
29461;BME280;16428;47.836;35.106;2022-09-17T13:48:23;100168.97;;;24.85;78.36
29461;BME280;16428;47.836;35.106;2022-09-17T13:50:53;100166.25;;;24.80;80.28
29461;BME280;16428;47.836;35.106;2022-09-17T13:53:24;100149.22;;;24.78;81.55
29461;BME280;16428;47.836;35.106;2022-09-17T13:55:55;100154.31;;;24.56;79.76
29461;BME280;16428;47.836;35.106;2022-09-17T13:58:33;100139.44;;;24.62;80.69
29461;BME280;16428;47.836;35.106;2022-09-17T14:01:11;100134.44;;;24.74;80.92
29461;BME280;16428;47.836;35.106;2022-09-17T14:24:45;100129.13;;;23.59;93.20
29461;BME280;16428;47.836;35.106;2022-09-17T14:30:18;100118.41;;;23.42;94.45
29461;BME280;16428;47.836;35.106;2022-09-17T14:33:06;100121.72;;;23.34;94.32
29461;BME280;16428;47.836;35.106;2022-09-17T14:35:40;100119.53;;;23.26;95.06
29461;BME280;16428;47.836;35.106;2022-09-17T14:41:14;100134.88;;;23.01;96.11
29461;BME280;16428;47.836;35.106;2022-09-17T14:43:53;100116.22;;;22.83;99.86
29461;BME280;16428;47.836;35.106;2022-09-17T14:46:24;100123.94;;;22.91;100.00
29461;BME280;16428;47.836;35.106;2022-09-17T14:48:53;100118.09;;;22.67;100.00
29461;BME280;16428;47.836;35.106;2022-09-17T14:51:24;100128.19;;;22.62;100.00
29461;BME280;16428;47.836;35.106;2022-09-17T14:54:06;100119.66;;;22.38;100.00
29461;BME280;16428;47.836;35.106;2022-09-17T14:59:54;100069.03;;;22.25;100.00
29461;BME280;16428;47.836;35.106;2022-09-17T15:02:28;100070.34;;;22.13;100.00
29461;BME280;16428;47.836;35.106;2022-09-17T15:04:57;100062.91;;;22.03;100.00
29461;BME280;16428;47.836;35.106;2022-09-17T15:07:25;100066.75;;;22.02;100.00
29461;BME280;16428;47.836;35.106;2022-09-17T15:09:53;100076.22;;;21.84;100.00
29461;BME280;16428;47.836;35.106;2022-09-17T15:12:32;100079.25;;;21.93;100.00
29461;BME280;16428;47.836;35.106;2022-09-17T15:15:02;100081.97;;;21.88;100.00
29461;BME280;16428;47.836;35.106;2022-09-17T15:17:31;100080.31;;;21.87;100.00
29461;BME280;16428;47.836;35.106;2022-09-17T15:20:02;100071.56;;;21.80;100.00
29461;BME280;16428;47.836;35.106;2022-09-17T15:22:36;100077.84;;;21.85;100.00
29461;BME280;16428;47.836;35.106;2022-09-17T15:25:08;100079.22;;;21.83;100.00
29461;BME280;16428;47.836;35.106;2022-09-17T15:27:41;100063.34;;;21.80;100.00
29461;BME280;16428;47.836;35.106;2022-09-17T15:30:15;100057.56;;;21.71;100.00
29461;BME280;16428;47.836;35.106;2022-09-17T15:33:02;100060.50;;;21.59;100.00
29461;BME280;16428;47.836;35.106;2022-09-17T15:35:31;100055.06;;;21.69;100.00
29461;BME280;16428;47.836;35.106;2022-09-17T15:38:02;100053.94;;;21.60;100.00
29461;BME280;16428;47.836;35.106;2022-09-17T15:40:50;100054.00;;;21.65;100.00
29461;BME280;16428;47.836;35.106;2022-09-17T15:46:25;100046.00;;;21.59;100.00
29461;BME280;16428;47.836;35.106;2022-09-17T15:48:56;100043.50;;;21.47;100.00
29461;BME280;16428;47.836;35.106;2022-09-17T15:51:29;100043.50;;;21.47;100.00
29461;BME280;16428;47.836;35.106;2022-09-17T15:54:03;100036.44;;;21.51;100.00
29461;BME280;16428;47.836;35.106;2022-09-17T15:56:37;100039.91;;;21.41;100.00
29461;BME280;16428;47.836;35.106;2022-09-17T15:59:26;100057.19;;;21.52;100.00
29461;BME280;16428;47.836;35.106;2022-09-17T16:01:59;100055.28;;;21.53;100.00
29461;BME280;16428;47.836;35.106;2022-09-17T16:04:32;100064.88;;;21.60;100.00
29461;BME280;16428;47.836;35.106;2022-09-17T16:07:28;100067.13;;;21.68;100.00
29461;BME280;16428;47.836;35.106;2022-09-17T16:10:09;100069.91;;;21.79;100.00
29461;BME280;16428;47.836;35.106;2022-09-17T16:12:37;100061.09;;;21.71;100.00
29461;BME280;16428;47.836;35.106;2022-09-17T16:15:09;100049.59;;;21.64;100.00
29461;BME280;16428;47.836;35.106;2022-09-17T16:17:44;100053.16;;;21.70;100.00
29461;BME280;16428;47.836;35.106;2022-09-17T16:22:44;100054.00;;;21.70;100.00
29461;BME280;16428;47.836;35.106;2022-09-17T16:25:21;100062.50;;;21.69;100.00
29461;BME280;16428;47.836;35.106;2022-09-17T16:28:01;100052.88;;;21.61;100.00
29461;BME280;16428;47.836;35.106;2022-09-17T16:30:31;100052.91;;;21.66;100.00
29461;BME280;16428;47.836;35.106;2022-09-17T16:33:05;100060.59;;;21.74;100.00